Time;durP1;ratioP1;P1;durP2;ratioP2;P2;SDS_P1;SDS_P2;PMS_P1;PMS_P2;Temp;Humidity;BMP_temperature;BMP_pressure;BME280_temperature;BME280_humidity;BME280_pressure;Samples;Min_cycle;Max_cycle;Signal;HPM_P1;HPM_P2
2021/12/03 00:01:22;;;;;;;21.23;10.77;;;;;;;1.88;78.83;97029.59;5151714;27;20456;-59
2021/12/03 00:03:48;;;;;;;20.52;10.90;;;;;;;1.91;78.83;97037.00;5152592;27;20046;-61
2021/12/03 00:06:14;;;;;;;21.17;10.63;;;;;;;2.01;79.20;97031.91;5152547;27;20086;-61
2021/12/03 00:08:41;;;;;;;22.25;10.77;;;;;;;2.06;78.64;97028.56;5151340;27;20066;-61
2021/12/03 00:11:09;;;;;;;21.95;10.23;;;;;;;1.98;78.44;97031.59;5152193;27;20064;-61
2021/12/03 00:13:35;;;;;;;16.40;9.65;;;;;;;1.90;78.66;97039.81;5152461;27;20042;-59
2021/12/03 00:16:03;;;;;;;20.08;10.07;;;;;;;1.99;78.92;97033.16;5151237;27;20047;-61
2021/12/03 00:18:30;;;;;;;18.70;10.55;;;;;;;1.97;78.48;97037.81;5152702;27;20175;-61
2021/12/03 00:20:56;;;;;;;21.67;11.07;;;;;;;1.87;79.11;97045.53;5129600;28;20039;-61
2021/12/03 00:23:25;;;;;;;19.33;10.50;;;;;;;1.79;79.35;97036.25;5134571;27;20039;-61
2021/12/03 00:25:51;;;;;;;22.00;11.07;;;;;;;1.81;79.30;97042.84;5135848;27;20063;-61
2021/12/03 00:28:17;;;;;;;20.10;10.10;;;;;;;1.76;79.25;97044.56;5135383;27;20124;-61
2021/12/03 00:30:43;;;;;;;18.10;10.02;;;;;;;1.79;79.27;97031.84;5155091;27;20077;-61
2021/12/03 00:33:09;;;;;;;19.55;10.10;;;;;;;1.84;79.24;97043.41;5120290;27;20055;-60
2021/12/03 00:35:35;;;;;;;17.02;9.50;;;;;;;1.84;79.61;97033.72;5156365;27;20051;-60
2021/12/03 00:38:01;;;;;;;16.35;9.20;;;;;;;1.93;79.18;97042.75;5155890;27;20129;-61
2021/12/03 00:40:31;;;;;;;15.23;9.57;;;;;;;1.88;78.96;97029.59;5155391;27;20522;-60
2021/12/03 00:42:58;;;;;;;18.80;10.07;;;;;;;1.90;79.67;97030.16;5154672;27;20031;-61
2021/12/03 00:45:23;;;;;;;18.52;10.30;;;;;;;1.94;79.20;97033.09;5137196;27;20054;-60
2021/12/03 00:47:49;;;;;;;16.52;9.15;;;;;;;1.93;79.17;97040.13;5154224;27;20061;-61
2021/12/03 00:50:18;;;;;;;18.33;10.43;;;;;;;2.01;79.18;97036.34;5155934;27;20095;-60
2021/12/03 00:52:44;;;;;;;18.60;10.65;;;;;;;2.01;78.65;97047.56;5155624;27;20472;-60
2021/12/03 00:55:10;;;;;;;16.13;9.50;;;;;;;2.08;78.63;97049.22;5155880;27;20047;-60
2021/12/03 00:57:37;;;;;;;18.05;10.35;;;;;;;2.12;78.91;97056.38;5154735;27;20035;-62
2021/12/03 01:00:05;;;;;;;15.27;9.95;;;;;;;2.11;78.45;97046.13;5155713;27;20046;-61
2021/12/03 01:02:31;;;;;;;17.20;10.50;;;;;;;2.10;78.42;97047.97;5155474;27;20111;-61
2021/12/03 01:04:57;;;;;;;16.42;9.75;;;;;;;2.18;78.24;97044.16;5155652;27;20495;-59
2021/12/03 01:07:23;;;;;;;16.67;9.93;;;;;;;2.20;78.14;97055.16;5154980;27;20051;-63
2021/12/03 01:09:48;;;;;;;18.20;8.85;;;;;;;2.24;77.91;97043.97;5154102;27;20139;-61
2021/12/03 01:12:14;;;;;;;16.77;8.38;;;;;;;2.28;77.43;97041.66;5154141;27;20103;-61
2021/12/03 01:14:40;;;;;;;13.15;8.88;;;;;;;2.24;77.79;97043.97;5155337;27;20399;-60
2021/12/03 01:17:07;;;;;;;17.55;9.90;;;;;;;2.27;77.69;97055.78;5154188;27;20035;-60
2021/12/03 01:19:33;;;;;;;12.95;9.45;;;;;;;2.29;77.70;97043.25;5153674;27;20057;-60
2021/12/03 01:21:59;;;;;;;14.70;8.52;;;;;;;2.31;77.60;97053.47;5155236;27;20487;-61
2021/12/03 01:24:25;;;;;;;13.00;8.38;;;;;;;2.30;77.38;97054.50;5154890;27;20127;-61
2021/12/03 01:26:54;;;;;;;12.35;7.85;;;;;;;2.32;76.89;97052.44;5154573;27;20174;-62
2021/12/03 01:29:21;;;;;;;12.43;8.20;;;;;;;2.32;77.33;97055.81;5154997;27;20492;-60
2021/12/03 01:31:47;;;;;;;14.55;8.57;;;;;;;2.25;77.35;97056.00;5154903;27;20054;-60
2021/12/03 01:34:14;;;;;;;15.10;8.40;;;;;;;2.27;77.20;97059.19;5153481;27;20530;-60
2021/12/03 01:36:39;;;;;;;13.32;8.13;;;;;;;2.31;77.18;97062.09;5153823;27;20035;-61
2021/12/03 01:39:07;;;;;;;15.70;8.18;;;;;;;2.38;77.08;97075.81;5155031;27;20145;-61
2021/12/03 01:41:33;;;;;;;13.75;8.10;;;;;;;2.41;77.20;97077.13;5153446;27;20496;-59
2021/12/03 01:44:03;;;;;;;12.23;7.70;;;;;;;2.39;76.82;97080.00;5154284;27;20049;-60
2021/12/03 01:46:31;;;;;;;12.85;7.88;;;;;;;2.45;76.90;97081.63;5154349;27;20039;-61
2021/12/03 01:48:57;;;;;;;14.07;8.48;;;;;;;2.50;76.42;97089.56;5154371;27;20507;-61
2021/12/03 01:51:24;;;;;;;11.63;7.82;;;;;;;2.49;76.90;97084.56;5154401;27;20487;-60
2021/12/03 01:53:50;;;;;;;13.10;8.02;;;;;;;2.44;76.84;97087.91;5154469;27;20054;-61
2021/12/03 01:56:17;;;;;;;13.13;8.70;;;;;;;2.45;76.54;97094.72;5152797;27;20035;-61
2021/12/03 01:58:44;;;;;;;12.32;7.40;;;;;;;2.47;76.65;97092.66;5153132;27;20066;-61
2021/12/03 02:01:13;;;;;;;13.30;7.70;;;;;;;2.47;76.27;97094.47;5152962;27;20045;-60
2021/12/03 02:03:40;;;;;;;11.93;7.97;;;;;;;2.50;76.44;97094.00;5154253;27;20038;-60
2021/12/03 02:06:08;;;;;;;12.07;7.78;;;;;;;2.48;76.40;97093.44;5153441;27;20539;-60
2021/12/03 02:08:35;;;;;;;12.65;7.78;;;;;;;2.47;76.42;97090.03;5152874;27;20038;-60
2021/12/03 02:11:01;;;;;;;12.98;7.53;;;;;;;2.48;75.97;97099.47;5154115;27;20039;-61
2021/12/03 02:13:27;;;;;;;11.85;7.75;;;;;;;2.53;76.31;97098.75;5153708;27;20049;-60
2021/12/03 02:15:53;;;;;;;11.98;7.88;;;;;;;2.55;75.84;97107.13;5152925;27;20047;-60
2021/12/03 02:18:19;;;;;;;15.63;8.68;;;;;;;2.59;75.67;97110.88;5153913;27;20042;-60
2021/12/03 02:20:49;;;;;;;13.50;8.63;;;;;;;2.57;75.92;97109.50;5154320;27;20038;-59
2021/12/03 02:23:15;;;;;;;;;;;;;;;2.49;76.04;97115.94;5154578;27;20458;-61
2021/12/03 02:25:42;;;;;;;12.80;8.02;;;;;;;2.45;75.94;97107.78;5151967;27;20431;-59
2021/12/03 02:28:09;;;;;;;10.10;7.10;;;;;;;2.42;76.34;97110.09;5153751;27;20045;-62
2021/12/03 02:30:35;;;;;;;12.38;8.02;;;;;;;2.35;76.67;97110.25;5152647;27;20465;-59
2021/12/03 02:33:02;;;;;;;12.85;8.40;;;;;;;2.36;76.51;97117.06;5152132;27;20050;-61
2021/12/03 02:35:28;;;;;;;16.85;8.18;;;;;;;2.34;76.55;97115.72;5152260;27;20046;-60
2021/12/03 02:37:54;;;;;;;12.90;7.85;;;;;;;2.40;76.66;97120.00;5152533;27;20471;-60
2021/12/03 02:40:21;;;;;;;15.15;8.27;;;;;;;2.40;76.54;97128.63;5153755;27;20129;-61
2021/12/03 02:42:47;;;;;;;15.18;7.97;;;;;;;2.40;76.26;97120.78;5135049;27;20042;-60
2021/12/03 02:45:14;;;;;;;11.68;7.90;;;;;;;2.41;76.36;97124.19;5152578;27;20551;-58
2021/12/03 02:47:40;;;;;;;14.48;8.27;;;;;;;2.42;76.42;97123.97;5153468;27;20035;-61
2021/12/03 02:50:08;;;;;;;13.73;8.65;;;;;;;2.44;76.41;97114.06;5153527;27;20110;-60
2021/12/03 02:52:33;;;;;;;11.55;7.57;;;;;;;2.27;76.89;97121.13;5153084;27;20094;-61
2021/12/03 02:55:00;;;;;;;15.93;9.02;;;;;;;2.39;76.73;97131.50;5134807;27;20125;-62
2021/12/03 02:57:25;;;;;;;15.05;8.68;;;;;;;2.39;76.68;97123.66;5152112;27;20526;-61
2021/12/03 02:59:52;;;;;;;13.75;8.70;;;;;;;2.38;76.40;97119.44;5152033;27;20039;-61
2021/12/03 03:02:18;;;;;;;13.02;8.25;;;;;;;2.37;76.52;97126.50;5152570;27;20074;-62
2021/12/03 03:04:44;;;;;;;14.85;8.70;;;;;;;2.31;76.96;97132.69;5152789;27;20050;-61
2021/12/03 03:07:10;;;;;;;13.48;9.18;;;;;;;2.31;76.74;97127.47;5153056;27;20452;-61
2021/12/03 03:09:36;;;;;;;13.63;8.55;;;;;;;2.30;76.67;97128.50;5153279;27;20047;-60
2021/12/03 03:12:02;;;;;;;16.25;8.55;;;;;;;2.36;76.79;97138.00;5134312;27;20420;-61
2021/12/03 03:14:28;;;;;;;16.02;9.55;;;;;;;2.31;76.52;97139.75;5153017;27;20079;-60
2021/12/03 03:16:55;;;;;;;16.35;8.88;;;;;;;2.34;77.08;97147.09;5134392;27;20134;-59
2021/12/03 03:19:22;;;;;;;15.05;8.70;;;;;;;2.42;76.46;97149.31;5152574;27;20550;-60
2021/12/03 03:21:49;;;;;;;14.13;8.32;;;;;;;2.51;76.21;97150.50;5150909;27;20054;-61
2021/12/03 03:24:16;;;;;;;13.13;8.45;;;;;;;2.54;76.17;97151.84;5151805;27;20038;-60
2021/12/03 03:26:44;;;;;;;15.90;8.65;;;;;;;2.60;75.81;97150.88;5152737;27;20055;-61
2021/12/03 03:29:12;;;;;;;15.32;8.45;;;;;;;2.58;75.91;97151.09;5152878;27;20049;-62
2021/12/03 03:31:38;;;;;;;14.57;9.10;;;;;;;2.56;75.92;97137.50;5152394;27;20062;-60
2021/12/03 03:34:05;;;;;;;20.25;9.20;;;;;;;2.61;76.13;97152.44;5151496;27;20039;-62
2021/12/03 03:36:34;;;;;;;15.32;9.02;;;;;;;2.52;75.84;97144.22;5151834;27;20041;-60
2021/12/03 03:39:00;;;;;;;12.30;7.72;;;;;;;2.66;75.70;97150.69;5153108;27;20065;-67
2021/12/03 03:41:26;;;;;;;18.15;9.18;;;;;;;2.56;76.18;97157.59;5150713;27;20030;-60
2021/12/03 03:43:52;;;;;;;18.08;9.60;;;;;;;2.63;76.05;97159.03;5151514;27;20039;-61
2021/12/03 03:46:18;;;;;;;18.55;9.60;;;;;;;2.58;75.93;97153.72;5151615;27;20415;-61
2021/12/03 03:48:44;;;;;;;16.30;9.07;;;;;;;2.67;75.77;97160.13;5151342;27;20163;-61
2021/12/03 03:51:10;;;;;;;14.88;8.90;;;;;;;2.65;75.81;97159.59;5152974;27;20484;-61
2021/12/03 03:53:38;;;;;;;15.32;8.98;;;;;;;2.68;75.84;97159.09;5151450;27;20046;-60
2021/12/03 03:56:05;;;;;;;15.40;8.88;;;;;;;2.65;75.74;97158.81;5150704;27;20047;-60
2021/12/03 03:58:31;;;;;;;16.52;9.57;;;;;;;2.63;76.14;97163.47;5155869;27;20115;-62
2021/12/03 04:00:57;;;;;;;15.75;9.15;;;;;;;2.65;75.98;97162.22;5156473;27;20042;-61
2021/12/03 04:03:23;;;;;;;16.27;9.70;;;;;;;2.67;75.98;97162.75;5156534;27;20091;-62
2021/12/03 04:05:49;;;;;;;16.25;9.50;;;;;;;2.64;75.69;97165.84;5154983;27;20422;-59
2021/12/03 04:08:15;;;;;;;16.55;9.65;;;;;;;2.46;75.99;97161.66;5156570;27;20034;-61
2021/12/03 04:10:40;;;;;;;16.73;9.88;;;;;;;2.58;75.84;97161.56;5156464;27;20054;-60
2021/12/03 04:13:06;;;;;;;14.98;8.23;;;;;;;2.64;75.35;97172.91;5156658;27;20034;-62
2021/12/03 04:15:32;;;;;;;19.83;10.90;;;;;;;2.68;74.92;97174.03;5155573;27;20073;-60
2021/12/03 04:17:58;;;;;;;17.17;10.13;;;;;;;2.60;75.19;97174.41;5154914;27;20513;-61
2021/12/03 04:20:24;;;;;;;15.02;9.45;;;;;;;2.66;75.08;97194.38;5156413;27;20050;-60
2021/12/03 04:22:51;;;;;;;15.65;8.73;;;;;;;2.69;75.10;97193.91;5154680;27;20503;-60
2021/12/03 04:25:19;;;;;;;15.82;9.50;;;;;;;2.70;75.11;97198.09;5156313;27;20071;-61
2021/12/03 04:27:46;;;;;;;14.25;9.38;;;;;;;2.75;75.01;97197.38;5156197;27;20030;-61
2021/12/03 04:30:16;;;;;;;13.73;8.40;;;;;;;2.67;74.72;97203.81;5154753;27;20054;-61
2021/12/03 04:32:42;;;;;;;17.05;9.93;;;;;;;2.56;75.34;97199.44;5155796;27;20050;-60
2021/12/03 04:35:08;;;;;;;18.35;9.88;;;;;;;2.58;75.38;97202.63;5153833;27;20479;-60
2021/12/03 04:37:34;;;;;;;14.75;9.50;;;;;;;2.58;75.44;97213.09;5155843;27;20125;-61
2021/12/03 04:40:00;;;;;;;16.10;9.23;;;;;;;2.60;75.04;97219.66;5156086;27;20171;-61
2021/12/03 04:42:26;;;;;;;16.00;9.68;;;;;;;2.58;75.25;97210.47;5155322;27;20038;-62
2021/12/03 04:44:51;;;;;;;16.95;10.00;;;;;;;2.58;75.22;97213.88;5156047;27;20047;-60
2021/12/03 04:47:17;;;;;;;16.40;8.60;;;;;;;2.65;74.90;97222.38;5155651;27;20499;-62
2021/12/03 04:49:43;;;;;;;15.95;9.40;;;;;;;2.64;74.82;97218.16;5155661;27;20045;-60
2021/12/03 04:52:09;;;;;;;14.95;9.23;;;;;;;2.64;74.88;97223.38;5155464;27;20491;-62
2021/12/03 04:54:34;;;;;;;15.50;9.07;;;;;;;2.63;74.31;97228.88;5155034;27;20217;-60
2021/12/03 04:57:00;;;;;;;14.68;8.27;;;;;;;2.66;74.25;97231.00;5155359;27;20035;-61
2021/12/03 04:59:26;;;;;;;12.30;8.05;;;;;;;2.60;74.57;97230.13;5155362;27;20130;-60
2021/12/03 05:01:55;;;;;;;15.95;9.75;;;;;;;2.41;75.20;97226.16;5154059;27;20046;-61
2021/12/03 05:04:21;;;;;;;15.37;8.60;;;;;;;2.35;76.13;97234.97;5155452;27;20042;-61
2021/12/03 05:06:56;;;;;;;14.43;9.18;;;;;;;2.30;76.15;97227.84;5136598;27;20522;-63
2021/12/03 05:09:23;;;;;;;14.00;8.82;;;;;;;2.26;76.33;97239.78;5155114;27;20122;-60
2021/12/03 05:11:49;;;;;;;17.20;9.75;;;;;;;2.28;76.22;97243.75;5154577;27;20042;-61
2021/12/03 05:14:14;;;;;;;17.63;9.55;;;;;;;2.27;76.29;97241.38;5155141;27;20049;-61
2021/12/03 05:16:40;;;;;;;14.65;9.90;;;;;;;2.25;76.67;97240.81;5136517;27;20034;-62
2021/12/03 05:19:06;;;;;;;19.52;10.73;;;;;;;2.17;76.51;97247.22;5155134;27;20171;-60
2021/12/03 05:21:32;;;;;;;14.48;9.77;;;;;;;2.11;76.81;97242.94;5153157;27;20042;-61
2021/12/03 05:23:58;;;;;;;17.38;9.82;;;;;;;2.06;77.16;97253.31;5153401;27;20072;-62
2021/12/03 05:26:23;;;;;;;17.98;10.05;;;;;;;2.07;77.34;97261.94;5154641;27;20507;-62
2021/12/03 05:28:49;;;;;;;18.15;10.15;;;;;;;2.07;76.85;97272.41;5154951;27;20883;-62
2021/12/03 05:31:15;;;;;;;16.17;9.98;;;;;;;2.03;76.99;97254.56;5153963;27;20492;-61
2021/12/03 05:33:41;;;;;;;17.35;10.05;;;;;;;1.95;77.39;97270.63;5152993;27;20524;-62
2021/12/03 05:36:07;;;;;;;17.67;10.70;;;;;;;1.88;77.84;97274.38;5154543;27;20121;-62
2021/12/03 05:38:32;;;;;;;19.08;10.23;;;;;;;1.86;77.84;97269.41;5154672;27;20042;-62
2021/12/03 05:40:58;;;;;;;16.55;9.95;;;;;;;1.83;77.82;97275.09;5152979;27;20625;-62
2021/12/03 05:43:24;;;;;;;19.20;11.18;;;;;;;1.82;77.93;97281.34;5154455;27;20113;-63
2021/12/03 05:45:50;;;;;;;18.67;10.45;;;;;;;1.79;77.90;97281.81;5154758;27;20404;-66
2021/12/03 05:48:15;;;;;;;15.75;8.85;;;;;;;1.73;77.81;97287.97;5152487;27;20066;-68
2021/12/03 05:50:42;;;;;;;15.52;9.32;;;;;;;1.73;77.98;97301.81;5154759;27;20544;-63
2021/12/03 05:53:08;;;;;;;19.30;9.70;;;;;;;1.77;77.88;97302.16;5154647;27;20039;-62
2021/12/03 05:55:33;;;;;;;15.30;9.70;;;;;;;1.87;77.29;97296.31;5154399;27;20060;-62
2021/12/03 05:57:59;;;;;;;17.13;8.40;;;;;;;1.93;77.08;97298.78;5153074;27;20180;-60
2021/12/03 06:00:31;;;;;;;15.75;9.20;;;;;;;1.91;76.76;97313.13;5152482;27;20484;-61
2021/12/03 06:02:57;;;;;;;14.23;9.07;;;;;;;2.01;76.57;97308.09;5153005;27;20408;-61
2021/12/03 06:05:25;;;;;;;15.60;9.05;;;;;;;2.11;76.76;97329.19;5154179;27;20047;-62
2021/12/03 06:07:51;;;;;;;15.13;8.93;;;;;;;2.20;76.62;97324.38;5154079;27;20495;-62
2021/12/03 06:10:18;;;;;;;15.80;9.80;;;;;;;2.24;76.52;97328.13;5152412;27;20042;-61
2021/12/03 06:12:44;;;;;;;15.70;9.55;;;;;;;2.34;76.07;97322.28;5154068;27;20042;-62
2021/12/03 06:15:10;;;;;;;13.43;8.75;;;;;;;2.43;75.36;97326.88;5152777;27;20045;-62
2021/12/03 06:17:35;;;;;;;14.75;9.45;;;;;;;2.49;75.72;97330.38;5153705;27;20067;-62
2021/12/03 06:20:01;;;;;;;16.77;10.38;;;;;;;2.36;75.46;97321.00;5152787;27;20047;-61
2021/12/03 06:22:27;;;;;;;17.42;9.90;;;;;;;2.49;75.50;97333.78;5153642;27;20043;-63
2021/12/03 06:24:53;;;;;;;15.02;9.55;;;;;;;2.56;75.12;97330.22;5153588;27;20111;-61
2021/12/03 06:27:18;;;;;;;13.30;9.23;;;;;;;2.48;75.74;97328.81;5153357;27;20102;-63
2021/12/03 06:29:44;;;;;;;15.27;9.18;;;;;;;2.43;75.59;97324.25;5153144;27;20043;-60
2021/12/03 06:32:10;;;;;;;16.52;9.98;;;;;;;2.44;75.60;97335.50;5152660;27;20066;-61
2021/12/03 06:34:39;;;;;;;15.80;9.25;;;;;;;2.44;75.45;97338.13;5149556;27;20039;-60
2021/12/03 06:37:05;;;;;;;18.13;9.43;;;;;;;2.42;75.42;97322.69;5146492;27;20039;-58
2021/12/03 06:39:31;;;;;;;18.13;9.77;;;;;;;2.43;75.46;97339.97;5132767;27;20109;-60
2021/12/03 06:41:57;;;;;;;15.32;9.55;;;;;;;2.43;75.24;97341.78;5146044;27;20085;-63
2021/12/03 06:44:24;;;;;;;14.73;8.80;;;;;;;2.43;74.96;97342.56;5149091;27;20043;-62
2021/12/03 06:46:51;;;;;;;14.13;8.88;;;;;;;2.36;75.51;97334.09;5151367;27;20043;-62
2021/12/03 06:49:17;;;;;;;15.57;9.48;;;;;;;2.33;75.39;97329.34;5149434;27;20038;-62
2021/12/03 06:51:44;;;;;;;14.80;8.73;;;;;;;2.24;75.38;97341.97;5132277;27;20050;-62
2021/12/03 06:54:11;;;;;;;20.38;11.10;;;;;;;2.10;75.59;97335.44;5149521;27;20046;-63
2021/12/03 06:56:51;;;;;;;15.07;9.00;;;;;;;2.07;76.03;97354.19;5148809;27;20089;-61
2021/12/03 06:59:21;;;;;;;;;;;;;;;2.15;75.88;97358.28;5148581;27;20037;-60
2021/12/03 07:01:47;;;;;;;14.52;9.60;;;;;;;2.15;75.80;97356.47;5117040;27;19919;-59
2021/12/03 07:04:13;;;;;;;16.17;9.30;;;;;;;2.18;75.76;97369.06;5146097;27;20582;-63
2021/12/03 07:06:39;;;;;;;14.93;9.30;;;;;;;2.24;75.33;97362.09;5146393;27;20088;-63
2021/12/03 07:09:05;;;;;;;15.65;9.65;;;;;;;2.23;75.08;97363.91;5129531;27;20495;-61
2021/12/03 07:11:31;;;;;;;16.92;9.10;;;;;;;2.26;75.30;97365.25;5128225;27;20038;-61
2021/12/03 07:13:57;;;;;;;16.67;10.30;;;;;;;2.24;75.24;97370.75;5147488;27;20037;-60
2021/12/03 07:16:23;;;;;;;16.38;9.40;;;;;;;2.19;75.32;97381.09;5147165;27;20055;-60
2021/12/03 07:18:50;;;;;;;13.60;9.10;;;;;;;2.13;75.63;97381.22;5149100;27;20053;-61
2021/12/03 07:21:16;;;;;;;14.27;8.98;;;;;;;2.17;75.39;97387.56;5131199;27;20041;-61
2021/12/03 07:23:42;;;;;;;17.23;9.68;;;;;;;2.20;75.55;97379.25;5148972;27;20046;-62
2021/12/03 07:26:08;;;;;;;17.65;9.50;;;;;;;2.23;75.28;97381.41;5146656;27;20145;-61
2021/12/03 07:28:34;;;;;;;15.93;9.38;;;;;;;2.27;74.84;97383.34;5148330;27;20555;-61
2021/12/03 07:31:00;;;;;;;16.05;9.43;;;;;;;2.33;74.96;97388.69;5149363;27;20035;-61
2021/12/03 07:33:28;;;;;;;14.93;9.48;;;;;;;2.44;74.66;97380.78;5150267;27;20492;-62
2021/12/03 07:35:54;;;;;;;14.07;8.95;;;;;;;2.50;74.38;97365.97;5150999;27;20042;-60
2021/12/03 07:38:20;;;;;;;19.98;9.07;;;;;;;2.54;73.96;97382.78;5154087;27;20042;-63
2021/12/03 07:40:48;;;;;;;14.18;8.75;;;;;;;2.58;74.21;97390.94;5153517;27;20041;-62
2021/12/03 07:43:16;;;;;;;16.60;9.35;;;;;;;2.47;73.95;97382.13;5154885;27;20129;-61
2021/12/03 07:45:46;;;;;;;16.15;9.07;;;;;;;2.50;73.62;97390.31;5151253;27;20053;-60
2021/12/03 07:48:12;;;;;;;15.75;9.40;;;;;;;2.53;73.75;97396.91;5154183;27;20153;-61
2021/12/03 07:50:39;;;;;;;14.20;8.95;;;;;;;2.57;73.68;97402.44;5154055;27;20038;-60
2021/12/03 07:53:06;;;;;;;14.10;9.00;;;;;;;2.65;73.40;97399.47;5151512;27;20053;-61
2021/12/03 07:55:35;;;;;;;15.30;8.65;;;;;;;2.73;73.17;97409.53;5152561;27;20045;-62
2021/12/03 07:58:03;;;;;;;12.95;9.20;;;;;;;2.81;72.85;97405.75;5152275;27;20074;-62
2021/12/03 08:00:29;;;;;;;15.02;9.20;;;;;;;2.88;72.40;97409.81;5152960;27;20069;-62
2021/12/03 08:02:55;;;;;;;15.48;9.70;;;;;;;2.91;72.70;97417.19;5151140;27;20053;-62
2021/12/03 08:05:20;;;;;;;12.27;8.55;;;;;;;2.90;72.50;97417.41;5153393;27;20050;-60
2021/12/03 08:07:47;;;;;;;16.08;9.57;;;;;;;2.92;72.77;97418.75;5151709;27;20030;-64
2021/12/03 08:10:14;;;;;;;15.48;9.65;;;;;;;2.96;72.64;97429.53;5150941;27;20046;-64
2021/12/03 08:12:42;;;;;;;15.77;10.10;;;;;;;3.05;72.40;97440.44;5154051;27;20046;-63
2021/12/03 08:15:07;;;;;;;15.60;8.75;;;;;;;3.00;72.38;97435.91;5154908;27;20050;-64
2021/12/03 08:17:33;;;;;;;14.75;9.48;;;;;;;2.94;72.18;97435.03;5130424;27;20046;-62
2021/12/03 08:19:59;;;;;;;17.63;9.45;;;;;;;3.01;72.53;97434.88;5132727;27;20074;-61
2021/12/03 08:22:25;;;;;;;18.45;9.88;;;;;;;3.01;72.28;97445.34;5114672;27;20074;-62
2021/12/03 08:24:50;;;;;;;13.40;8.85;;;;;;;2.91;72.87;97438.13;5147432;27;20110;-62
2021/12/03 08:27:16;;;;;;;13.10;7.80;;;;;;;2.99;71.48;97446.59;5146819;27;20087;-63
2021/12/03 08:29:42;;;;;;;16.75;8.77;;;;;;;2.95;72.11;97443.69;5154473;27;20046;-61
2021/12/03 08:32:10;;;;;;;14.43;8.88;;;;;;;3.04;71.97;97447.50;5151679;27;20050;-61
2021/12/03 08:34:36;;;;;;;15.23;9.15;;;;;;;3.06;71.50;97444.63;5152926;27;20038;-60
2021/12/03 08:37:03;;;;;;;14.40;8.80;;;;;;;3.10;71.34;97443.13;5150433;27;20085;-61
2021/12/03 08:39:32;;;;;;;12.85;8.32;;;;;;;3.13;71.04;97442.66;5153651;27;20046;-59
2021/12/03 08:41:58;;;;;;;16.90;9.13;;;;;;;3.16;71.47;97435.13;5151474;27;20057;-63
2021/12/03 08:44:23;;;;;;;16.85;9.00;;;;;;;3.20;70.83;97438.06;5149415;27;20100;-60
2021/12/03 08:47:02;;;;;;;13.65;8.88;;;;;;;3.31;70.59;97439.03;5152279;27;20039;-61
2021/12/03 08:49:31;;;;;;;15.05;9.52;;;;;;;3.38;70.46;97442.25;5151557;27;20081;-61
2021/12/03 08:57:33;;;;;;;14.00;8.93;;;;;;;3.27;69.94;97451.00;5152055;27;20103;-60
2021/12/03 09:00:12;;;;;;;14.48;8.55;;;;;;;3.25;70.06;97466.16;5150939;27;20047;-61
2021/12/03 09:02:38;;;;;;;13.73;8.73;;;;;;;3.36;70.46;97467.91;5151233;27;20045;-61
2021/12/03 09:05:04;;;;;;;12.88;8.63;;;;;;;3.37;70.06;97465.03;5152261;27;20562;-61
2021/12/03 09:07:30;;;;;;;15.10;8.73;;;;;;;3.46;69.96;97448.94;5152569;27;20038;-61
2021/12/03 09:09:57;;;;;;;17.35;8.90;;;;;;;3.42;70.09;97452.03;5151493;27;20042;-62
2021/12/03 09:12:23;;;;;;;13.88;9.07;;;;;;;3.47;69.94;97443.47;5151279;27;20535;-60
2021/12/03 09:14:57;;;;;;;13.38;8.77;;;;;;;3.61;69.98;97449.16;5131074;27;20070;-61
2021/12/03 09:22:51;;;;;;;15.75;8.98;;;;;;;3.67;68.92;97450.03;5149888;27;20058;-62
2021/12/03 09:25:31;;;;;;;17.60;8.93;;;;;;;3.67;69.51;97445.59;5151927;27;20074;-62
2021/12/03 09:27:59;;;;;;;13.68;9.30;;;;;;;3.59;69.48;97457.28;5152863;27;20554;-61
2021/12/03 09:30:25;;;;;;;15.65;9.55;;;;;;;3.56;69.38;97459.56;5152865;27;20164;-61
2021/12/03 09:32:57;;;;;;;16.17;9.27;;;;;;;3.42;71.30;97451.25;5153084;27;20054;-62
2021/12/03 09:35:23;;;;;;;19.67;9.85;;;;;;;3.56;73.13;97457.75;5153038;27;20042;-61
2021/12/03 09:37:49;;;;;;;16.25;9.00;;;;;;;3.61;76.90;97459.66;5152776;27;20077;-62
2021/12/03 09:40:21;;;;;;;15.90;9.55;;;;;;;3.54;75.55;97453.78;5152685;27;20119;-61
2021/12/03 09:42:47;;;;;;;14.00;9.45;;;;;;;3.23;78.96;97449.88;5151085;27;20163;-61
2021/12/03 09:45:13;;;;;;;17.27;9.23;;;;;;;3.27;78.06;97457.03;5153117;27;20070;-60
2021/12/03 09:47:39;;;;;;;15.40;9.63;;;;;;;3.23;77.75;97448.06;5151887;27;20411;-62
2021/12/03 09:50:11;;;;;;;16.55;9.75;;;;;;;3.25;76.76;97450.44;5150992;27;20051;-61
2021/12/03 09:55:11;;;;;;;13.65;8.90;;;;;;;3.13;76.52;97459.16;5147478;27;20066;-62
2021/12/03 09:57:41;;;;;;;19.10;9.63;;;;;;;3.18;74.71;97461.09;5149253;27;20043;-62
2021/12/03 10:00:32;;;;;;;13.73;8.88;;;;;;;3.28;75.76;97457.81;5150344;27;20049;-62
2021/12/03 10:14:01;;;;;;;17.10;9.93;;;;;;;3.15;75.58;97462.34;5149763;27;20041;-62
2021/12/03 10:19:34;;;;;;;14.65;8.68;;;;;;;3.22;74.60;97459.56;5153389;27;20046;-63
2021/12/03 10:41:22;;;;;;;14.18;8.85;;;;;;;2.92;74.67;97467.69;5127663;27;20039;-64
2021/12/03 10:46:32;;;;;;;14.75;9.00;;;;;;;2.94;76.63;97448.13;5149271;27;20239;-62
2021/12/03 10:51:51;;;;;;;17.20;10.50;;;;;;;2.92;79.13;97455.41;5149714;27;20050;-61
2021/12/03 12:20:00;;;;;;;17.65;9.65;;;;;;;2.81;73.00;97458.06;5152476;27;20090;-61
2021/12/03 12:23:46;;;;;;;17.55;9.90;;;;;;;2.91;72.84;97458.25;5153798;27;20046;-62
2021/12/03 14:37:48;;;;;;;25.58;13.05;;;;;;;2.98;77.20;97401.31;5133042;27;20281;-68
2021/12/03 14:57:22;;;;;;;27.20;13.15;;;;;;;2.37;79.09;97372.28;5153064;27;20084;-61
2021/12/03 15:08:42;;;;;;;26.25;13.88;;;;;;;2.43;79.07;97358.25;5152940;27;19930;-59
2021/12/03 15:17:36;;;;;;;26.98;13.50;;;;;;;2.31;79.04;97367.19;5152583;27;20141;-60
2021/12/03 15:22:16;;;;;;;24.38;13.98;;;;;;;2.20;79.83;97348.69;5151299;27;20050;-59
2021/12/03 15:25:00;;;;;;;22.15;12.98;;;;;;;2.12;79.42;97350.88;5151884;27;20062;-59
2021/12/03 15:35:21;;;;;;;24.10;12.55;;;;;;;2.21;79.68;97345.06;5153088;27;20045;-60
2021/12/03 16:08:06;;;;;;;22.58;11.55;;;;;;;2.52;78.06;97329.13;5156626;27;20043;-57
2021/12/03 16:10:57;;;;;;;19.75;12.40;;;;;;;2.47;78.30;97324.59;5156361;27;20035;-56
2021/12/03 16:23:59;;;;;;;21.42;11.45;;;;;;;2.67;79.26;97337.22;5156454;27;20504;-56
2021/12/03 16:46:02;;;;;;;18.75;12.52;;;;;;;2.63;78.00;97294.25;5156244;27;20107;-58
2021/12/03 16:53:29;;;;;;;20.80;12.07;;;;;;;2.53;78.31;97294.09;5155646;27;20117;-57
2021/12/03 16:58:22;;;;;;;21.38;12.48;;;;;;;2.48;77.82;97282.53;5155784;27;20035;-55
2021/12/03 17:00:58;;;;;;;19.50;12.40;;;;;;;2.48;77.95;97290.38;5154414;27;20576;-58
2021/12/03 17:03:33;;;;;;;21.08;12.90;;;;;;;2.45;78.99;97279.59;5155175;27;20428;-56
2021/12/03 17:28:44;;;;;;;15.02;9.43;;;;;;;2.49;78.39;97260.56;5155205;27;20042;-56
2021/12/03 17:44:43;;;;;;;17.27;9.57;;;;;;;2.49;79.09;97281.47;5153431;27;20495;-57
2021/12/03 17:47:30;;;;;;;17.02;9.45;;;;;;;2.49;78.51;97268.41;5154648;27;20503;-57
2021/12/03 17:51:00;;;;;;;15.70;9.38;;;;;;;2.55;78.93;97273.72;5154720;27;20034;-57
2021/12/03 17:55:32;;;;;;;14.45;8.95;;;;;;;2.58;78.37;97260.16;5152893;27;20039;-57
2021/12/03 18:00:55;;;;;;;15.75;9.93;;;;;;;2.35;78.55;97256.66;5154538;27;20073;-57
2021/12/03 18:03:39;;;;;;;14.18;9.45;;;;;;;2.39;78.32;97255.19;5154497;27;20076;-57
2021/12/03 18:55:09;;;;;;;12.43;8.02;;;;;;;2.44;77.85;97284.03;5131315;27;20439;-57
2021/12/03 18:57:42;;;;;;;13.15;8.35;;;;;;;2.46;77.39;97289.00;5152202;27;20043;-57
2021/12/03 19:00:10;;;;;;;15.73;8.90;;;;;;;2.36;77.30;97292.25;5153693;27;20046;-57
2021/12/03 19:02:39;;;;;;;11.52;7.50;;;;;;;2.41;77.74;97297.59;5153525;27;20046;-56
2021/12/03 19:10:13;;;;;;;13.68;8.23;;;;;;;2.40;76.86;97285.50;5151745;27;20511;-57
2021/12/03 19:12:42;;;;;;;12.55;8.38;;;;;;;2.32;76.93;97279.88;5153478;27;20095;-57
2021/12/03 19:15:10;;;;;;;12.13;7.38;;;;;;;2.25;76.68;97282.66;5153274;27;20039;-57
2021/12/03 19:17:37;;;;;;;11.25;7.13;;;;;;;2.19;77.10;97278.38;5152055;27;20416;-57
2021/12/03 19:20:06;;;;;;;11.85;8.13;;;;;;;2.25;76.55;97290.50;5153371;27;20046;-58
2021/12/03 19:22:31;;;;;;;11.73;7.55;;;;;;;2.26;77.67;97294.69;5153048;27;20066;-57
2021/12/03 19:24:58;;;;;;;11.00;7.35;;;;;;;2.25;77.08;97293.09;5153048;27;20131;-57
2021/12/03 19:27:26;;;;;;;11.77;8.00;;;;;;;2.34;77.88;97288.28;5155807;27;20068;-56
2021/12/03 19:29:54;;;;;;;11.98;8.00;;;;;;;2.36;77.32;97299.31;5160154;27;20099;-56